Norwegian Spirit — C6TQ6 — position and weather

sailwx.info

Track history (hours):
 
Tides and Currents Weather Stations Pressure Air Temp Water Temp Dewpoint Dewpoint Depression Visibility Wind Speed Wind Dir Waves Ship Positions

Norwegian Spirit

Operator: Norwegian Cruise Line

Last reported at 2018-May-24 21:30 UTC. Time now 2018-May-24 21:37 UTC.
Position N 36°21' E 015°06'.

Type: Passenger vessel. MMSI: 311746000.

Date/timePositionNaut miles runAvg speedWind from/ knotsBaromVisibWave heightAir tempDewpointWater temp
2018-May-24 21:30N 36°21' E 015°06'815.8
2018-May-24 21:00N 36°16' E 014°59'815.9
2018-May-24 20:31N 36°10' E 014°52'816.0
2018-May-24 20:00N 36°04' E 014°45'3305.6
2018-May-24 20:00N 36°06' E 014°48'1122.5 310 / 7 5.4 19.0
2018-May-24 19:30N 35°59' E 014°38'713.6
2018-May-24 19:00N 35°54' E 014°31'19 1.9
2018-May-24 09:00N 36°01' E 014°53'22019.9
2018-May-23 22:00N 35°48' E 019°24'1919.5 270 / 14 5.4
2018-May-23 21:00N 35°48' E 019°48'3919.5 280 / 16 5.4 20.015.320.0
2018-May-23 19:00N 35°48' E 020°36'13619.5 280 / 18 5.4 20.015.320.0
2018-May-23 12:00N 35°42' E 023°24'1919.5 090 / 231016.0 22.0 21.0
2018-May-23 11:00N 35°42' E 023°48'20 5.1 030 / 11 5.4
2018-May-23 07:00N 35°24' E 024°00'38 4.2 090 / 7 5.4 23.018.523.0
2018-May-22 22:00N 35°48' E 024°36'6 6.0 210 / 10 5.4
2018-May-22 21:00N 35°54' E 024°36'15 7.7 190 / 6 22.019.022.0
2018-May-22 19:00N 36°06' E 024°48'34 3.4 190 / 4 2.2 23.020.121.0
2018-May-22 09:00N 36°24' E 025°24'38 3.5 330 / 6 5.4 23.020.123.0
2018-May-21 22:00N 36°06' E 026°06'3913.1 010 / 15 10.8 19.0
2018-May-21 19:00N 36°12' E 026°54'3913.1 170 / 9 22.020.522.0
2018-May-21 16:00N 36°18' E 027°42'83 5.2 010 / 61011.0 20.0 20.0
2018-May-21 00:00N 36°06' E 026°00'12117.3 040 / 17 5.4
2018-May-20 16:58N 37°14' E 023°55'1320.3
2018-May-20 16:19N 37°26' E 023°48'720.3
2018-May-20 15:59N 37°32' E 023°45'1020.2
2018-May-20 15:30N 37°42' E 023°41'1019.7
2018-May-20 15:00N 37°51' E 023°37'611.3
2018-May-20 14:30N 37°56' E 023°38'0 0.4
2018-May-20 14:00N 37°56' E 023°38'0 0.0
2018-May-20 13:30N 37°56' E 023°38'0 0.0
2018-May-20 13:00N 37°56' E 023°38'0 0.0
2018-May-20 12:30N 37°56' E 023°38'0 0.0
2018-May-20 12:00N 37°56' E 023°38'0 0.0
2018-May-20 11:30N 37°56' E 023°38'0 0.0
2018-May-20 11:00N 37°56' E 023°38'0 0.0
2018-May-20 10:30N 37°56' E 023°38'0 0.0
2018-May-20 10:00N 37°56' E 023°38'0 0.0
2018-May-20 09:30N 37°56' E 023°38'0 0.0
2018-May-20 09:00N 37°56' E 023°38'0 0.0
2018-May-20 08:30N 37°56' E 023°38'0 0.0
2018-May-20 08:00N 37°56' E 023°38'0 0.0
2018-May-20 07:30N 37°56' E 023°38'0 0.0
2018-May-20 07:00N 37°56' E 023°38'0 0.0
2018-May-20 06:30N 37°56' E 023°38'0 0.0
2018-May-20 06:00N 37°56' E 023°38'0 0.0
2018-May-20 05:31N 37°56' E 023°38'0 0.0
2018-May-20 05:00N 37°56' E 023°38'0 0.0
2018-May-20 04:30N 37°56' E 023°38'0 0.0
2018-May-20 04:01N 37°56' E 023°38'0 0.0
2018-May-20 03:30N 37°56' E 023°38'2 3.0
2018-May-20 03:01N 37°55' E 023°36'5 9.9
2018-May-20 02:30N 37°51' E 023°39'816.4
2018-May-20 02:00N 37°44' E 023°44'714.5
2018-May-20 01:30N 37°39' E 023°50'1015.1
2018-May-20 00:52N 37°36' E 024°02'615.1
2018-May-20 00:28N 37°37' E 024°10'612.1
2018-May-20 00:00N 37°42' E 024°12'435.4 040 / 5 5.4
2018-May-19 23:52N 37°43' E 024°17'915.0
2018-May-19 23:17N 37°49' E 024°26'3712.1
2018-May-19 20:12N 37°58' E 025°12'1114.6
2018-May-19 19:28N 37°56' E 025°25'714.8
2018-May-19 19:00N 37°51' E 025°31'714.5
2018-May-19 18:30N 37°45' E 025°36'714.2
2018-May-19 18:00N 37°40' E 025°30'815.0
2018-May-19 17:30N 37°35' E 025°23'714.7
2018-May-19 17:00N 37°29' E 025°17'3 5.4
2018-May-19 16:30N 37°27' E 025°19'0 0.1
2018-May-19 15:59N 37°27' E 025°19'0 0.0
2018-May-19 15:26N 37°27' E 025°19'0 0.0
2018-May-19 14:59N 37°27' E 025°19'0 0.1
2018-May-19 14:29N 37°27' E 025°19'0 0.0
2018-May-19 13:59N 37°27' E 025°19'0 0.0
2018-May-19 13:26N 37°27' E 025°19'0 0.1
2018-May-19 12:59N 37°27' E 025°19'0 0.0
2018-May-19 12:29N 37°27' E 025°19'0 0.0
2018-May-19 11:59N 37°27' E 025°19'0 0.0
2018-May-19 11:29N 37°27' E 025°19'0 0.0
2018-May-19 10:59N 37°27' E 025°19'0 0.0
2018-May-19 10:26N 37°27' E 025°19'0 0.0
2018-May-19 09:59N 37°27' E 025°19'0 0.0
2018-May-19 09:29N 37°27' E 025°19'0 0.0
2018-May-19 08:59N 37°27' E 025°19'0 0.0
2018-May-19 08:29N 37°27' E 025°19'0 0.2
2018-May-19 08:00N 37°27' E 025°19'4 8.5
2018-May-19 07:30N 37°28' E 025°14'918.4
2018-May-19 07:00N 37°24' E 025°03'1020.1
2018-May-19 06:30N 37°18' E 024°53'7920.5
2018-May-19 02:40N 36°32' E 023°33'3923.2
2018-May-19 01:00N 36°18' E 022°48'3919.3 350 / 151030.0 5.4 15.015.010.0
2018-May-18 23:00N 36°18' E 022°00'4020.2 150 / 191030.0 5.4 15.015.010.0
2018-May-18 21:00N 36°30' E 021°12'19919.9 150 / 191030.0 5.4 15.015.010.0
2018-May-18 11:00N 37°24' E 017°12'5719.1 040 / 40 5.4
2018-May-18 08:00N 37°46' E 016°06'41075.2
2018-May-18 08:00N 37°42' E 016°06'1224.5 020 / 351012.0 19.0 19.0
2018-May-18 07:30N 37°49' E 015°53'1020.0
2018-May-18 06:59N 37°53' E 015°42'1018.0
2018-May-18 06:27N 38°01' E 015°35'920.9
2018-May-18 06:00N 38°11' E 015°35'612.0
2018-May-18 05:30N 38°16' E 015°40'713.3
2018-May-18 05:00N 38°22' E 015°39'1020.5
2018-May-18 04:30N 38°31' E 015°33'1121.3
2018-May-18 04:00N 38°41' E 015°27'1121.6
2018-May-18 03:28N 38°51' E 015°20'5120.6
2018-May-18 01:00N 39°24' E 014°30'4124.3 020 / 111020.0 5.4 15.015.012.0
2018-May-17 23:18N 39°57' E 013°57'52168.1
2018-May-17 23:00N 40°30' E 013°06'0 0.0 020 / 111020.0 5.4 15.015.012.0
2018-May-17 21:00N 40°30' E 013°06'76 3.5 150 / 91020.0 5.4 15.015.012.0
2018-May-16 23:00N 41°12' E 011°42'3612.0 190 / 6
2018-May-16 20:00N 40°36' E 011°42'12013.3 300 / 41015.0 18.0 19.0
2018-May-16 11:00N 38°36' E 011°48'4912.2 280 / 181017.0 18.0 19.0
2018-May-16 07:00N 37°48' E 012°00'7813.3 310 / 101017.0 18.0 19.0
2018-May-16 01:08N 36°58' E 013°15'313.1
2018-May-16 00:53N 36°55' E 013°18'513.1
2018-May-16 00:30N 36°52' E 013°23'713.8
2018-May-16 00:00N 36°47' E 013°29'713.5
2018-May-15 23:30N 36°42' E 013°35'613.1
2018-May-15 23:00N 36°38' E 013°41'2202.1
2018-May-15 23:00N 36°36' E 013°42'5 9.4 330 / 17
2018-May-15 22:30N 36°34' E 013°47'712.9
2018-May-15 22:00N 36°29' E 013°53'612.9
2018-May-15 21:30N 36°25' E 013°58'612.8
2018-May-15 21:00N 36°20' E 014°04'612.9
2018-May-15 20:30N 36°16' E 014°10'612.9
2018-May-15 20:01N 36°11' E 014°15'713.0
2018-May-15 19:30N 36°06' E 014°21'613.0
2018-May-15 19:01N 36°02' E 014°26'2144.5
2018-May-15 19:00N 36°00' E 014°24'714.5 320 / 121016.0 18.0 20.0
2018-May-15 18:30N 35°57' E 014°32'3 0.3
2018-May-15 10:20N 35°54' E 014°31'3 7.5
2018-May-15 10:00N 35°55' E 014°34'918.4
2018-May-15 09:30N 35°59' E 014°44'1020.3
2018-May-15 09:00N 36°03' E 014°56'2813.9
2018-May-15 07:00N 36°06' E 015°30'   030 / 201015.0 19.0 20.0
Track history (hours):
 
Tides and Currents Weather Stations Pressure Air Temp Water Temp Dewpoint Dewpoint Depression Visibility Wind Speed Wind Dir Waves Ship Positions

Norwegian Spirit

Operator: Norwegian Cruise Line

Last reported at 2018-May-24 21:30 UTC. Time now 2018-May-24 21:37 UTC.
Position N 36°21' E 015°06'.

Type: Passenger vessel. MMSI: 311746000.

Date/timePositionNaut miles runAvg speedWind from/ knotsBaromVisibWave heightAir tempDewpointWater temp
2018-May-24 21:30N 36°21' E 015°06'815.8
2018-May-24 21:00N 36°16' E 014°59'815.9
2018-May-24 20:31N 36°10' E 014°52'816.0
2018-May-24 20:00N 36°04' E 014°45'3305.6
2018-May-24 20:00N 36°06' E 014°48'1122.5 310 / 7 5.4 19.0
2018-May-24 19:30N 35°59' E 014°38'713.6
2018-May-24 19:00N 35°54' E 014°31'19 1.9
2018-May-24 09:00N 36°01' E 014°53'22019.9
2018-May-23 22:00N 35°48' E 019°24'1919.5 270 / 14 5.4
2018-May-23 21:00N 35°48' E 019°48'3919.5 280 / 16 5.4 20.015.320.0
2018-May-23 19:00N 35°48' E 020°36'13619.5 280 / 18 5.4 20.015.320.0
2018-May-23 12:00N 35°42' E 023°24'1919.5 090 / 231016.0 22.0 21.0
2018-May-23 11:00N 35°42' E 023°48'20 5.1 030 / 11 5.4
2018-May-23 07:00N 35°24' E 024°00'38 4.2 090 / 7 5.4 23.018.523.0
2018-May-22 22:00N 35°48' E 024°36'6 6.0 210 / 10 5.4
2018-May-22 21:00N 35°54' E 024°36'15 7.7 190 / 6 22.019.022.0
2018-May-22 19:00N 36°06' E 024°48'34 3.4 190 / 4 2.2 23.020.121.0
2018-May-22 09:00N 36°24' E 025°24'38 3.5 330 / 6 5.4 23.020.123.0
2018-May-21 22:00N 36°06' E 026°06'3913.1 010 / 15 10.8 19.0
2018-May-21 19:00N 36°12' E 026°54'3913.1 170 / 9 22.020.522.0
2018-May-21 16:00N 36°18' E 027°42'83 5.2 010 / 61011.0 20.0 20.0
2018-May-21 00:00N 36°06' E 026°00'12117.3 040 / 17 5.4
2018-May-20 16:58N 37°14' E 023°55'1320.3
2018-May-20 16:19N 37°26' E 023°48'720.3
2018-May-20 15:59N 37°32' E 023°45'1020.2
2018-May-20 15:30N 37°42' E 023°41'1019.7
2018-May-20 15:00N 37°51' E 023°37'611.3
2018-May-20 14:30N 37°56' E 023°38'0 0.4
2018-May-20 14:00N 37°56' E 023°38'0 0.0
2018-May-20 13:30N 37°56' E 023°38'0 0.0
2018-May-20 13:00N 37°56' E 023°38'0 0.0
2018-May-20 12:30N 37°56' E 023°38'0 0.0
2018-May-20 12:00N 37°56' E 023°38'0 0.0
2018-May-20 11:30N 37°56' E 023°38'0 0.0
2018-May-20 11:00N 37°56' E 023°38'0 0.0
2018-May-20 10:30N 37°56' E 023°38'0 0.0
2018-May-20 10:00N 37°56' E 023°38'0 0.0
2018-May-20 09:30N 37°56' E 023°38'0 0.0
2018-May-20 09:00N 37°56' E 023°38'0 0.0
2018-May-20 08:30N 37°56' E 023°38'0 0.0
2018-May-20 08:00N 37°56' E 023°38'0 0.0
2018-May-20 07:30N 37°56' E 023°38'0 0.0
2018-May-20 07:00N 37°56' E 023°38'0 0.0
2018-May-20 06:30N 37°56' E 023°38'0 0.0
2018-May-20 06:00N 37°56' E 023°38'0 0.0
2018-May-20 05:31N 37°56' E 023°38'0 0.0
2018-May-20 05:00N 37°56' E 023°38'0 0.0
2018-May-20 04:30N 37°56' E 023°38'0 0.0
2018-May-20 04:01N 37°56' E 023°38'0 0.0
2018-May-20 03:30N 37°56' E 023°38'2 3.0
2018-May-20 03:01N 37°55' E 023°36'5 9.9
2018-May-20 02:30N 37°51' E 023°39'816.4
2018-May-20 02:00N 37°44' E 023°44'714.5
2018-May-20 01:30N 37°39' E 023°50'1015.1
2018-May-20 00:52N 37°36' E 024°02'615.1
2018-May-20 00:28N 37°37' E 024°10'612.1
2018-May-20 00:00N 37°42' E 024°12'435.4 040 / 5 5.4
2018-May-19 23:52N 37°43' E 024°17'915.0
2018-May-19 23:17N 37°49' E 024°26'3712.1
2018-May-19 20:12N 37°58' E 025°12'1114.6
2018-May-19 19:28N 37°56' E 025°25'714.8
2018-May-19 19:00N 37°51' E 025°31'714.5
2018-May-19 18:30N 37°45' E 025°36'714.2
2018-May-19 18:00N 37°40' E 025°30'815.0
2018-May-19 17:30N 37°35' E 025°23'714.7
2018-May-19 17:00N 37°29' E 025°17'3 5.4
2018-May-19 16:30N 37°27' E 025°19'0 0.1
2018-May-19 15:59N 37°27' E 025°19'0 0.0
2018-May-19 15:26N 37°27' E 025°19'0 0.0
2018-May-19 14:59N 37°27' E 025°19'0 0.1
2018-May-19 14:29N 37°27' E 025°19'0 0.0
2018-May-19 13:59N 37°27' E 025°19'0 0.0
2018-May-19 13:26N 37°27' E 025°19'0 0.1
2018-May-19 12:59N 37°27' E 025°19'0 0.0
2018-May-19 12:29N 37°27' E 025°19'0 0.0
2018-May-19 11:59N 37°27' E 025°19'0 0.0
2018-May-19 11:29N 37°27' E 025°19'0 0.0
2018-May-19 10:59N 37°27' E 025°19'0 0.0
2018-May-19 10:26N 37°27' E 025°19'0 0.0
2018-May-19 09:59N 37°27' E 025°19'0 0.0
2018-May-19 09:29N 37°27' E 025°19'0 0.0
2018-May-19 08:59N 37°27' E 025°19'0 0.0
2018-May-19 08:29N 37°27' E 025°19'0 0.2
2018-May-19 08:00N 37°27' E 025°19'4 8.5
2018-May-19 07:30N 37°28' E 025°14'918.4
2018-May-19 07:00N 37°24' E 025°03'1020.1
2018-May-19 06:30N 37°18' E 024°53'7920.5
2018-May-19 02:40N 36°32' E 023°33'3923.2
2018-May-19 01:00N 36°18' E 022°48'3919.3 350 / 151030.0 5.4 15.015.010.0
2018-May-18 23:00N 36°18' E 022°00'4020.2 150 / 191030.0 5.4 15.015.010.0
2018-May-18 21:00N 36°30' E 021°12'19919.9 150 / 191030.0 5.4 15.015.010.0
2018-May-18 11:00N 37°24' E 017°12'5719.1 040 / 40 5.4
2018-May-18 08:00N 37°46' E 016°06'41075.2
2018-May-18 08:00N 37°42' E 016°06'1224.5 020 / 351012.0 19.0 19.0
2018-May-18 07:30N 37°49' E 015°53'1020.0
2018-May-18 06:59N 37°53' E 015°42'1018.0
2018-May-18 06:27N 38°01' E 015°35'920.9
2018-May-18 06:00N 38°11' E 015°35'612.0
2018-May-18 05:30N 38°16' E 015°40'713.3
2018-May-18 05:00N 38°22' E 015°39'1020.5
2018-May-18 04:30N 38°31' E 015°33'1121.3
2018-May-18 04:00N 38°41' E 015°27'1121.6
2018-May-18 03:28N 38°51' E 015°20'5120.6
2018-May-18 01:00N 39°24' E 014°30'4124.3 020 / 111020.0 5.4 15.015.012.0
2018-May-17 23:18N 39°57' E 013°57'52168.1
2018-May-17 23:00N 40°30' E 013°06'0 0.0 020 / 111020.0 5.4 15.015.012.0
2018-May-17 21:00N 40°30' E 013°06'76 3.5 150 / 91020.0 5.4 15.015.012.0
2018-May-16 23:00N 41°12' E 011°42'3612.0 190 / 6
2018-May-16 20:00N 40°36' E 011°42'12013.3 300 / 41015.0 18.0 19.0
2018-May-16 11:00N 38°36' E 011°48'4912.2 280 / 181017.0 18.0 19.0
2018-May-16 07:00N 37°48' E 012°00'7813.3 310 / 101017.0 18.0 19.0
2018-May-16 01:08N 36°58' E 013°15'313.1
2018-May-16 00:53N 36°55' E 013°18'513.1
2018-May-16 00:30N 36°52' E 013°23'713.8
2018-May-16 00:00N 36°47' E 013°29'713.5
2018-May-15 23:30N 36°42' E 013°35'613.1
2018-May-15 23:00N 36°38' E 013°41'2202.1
2018-May-15 23:00N 36°36' E 013°42'5 9.4 330 / 17
2018-May-15 22:30N 36°34' E 013°47'712.9
2018-May-15 22:00N 36°29' E 013°53'612.9
2018-May-15 21:30N 36°25' E 013°58'612.8
2018-May-15 21:00N 36°20' E 014°04'612.9
2018-May-15 20:30N 36°16' E 014°10'612.9
2018-May-15 20:01N 36°11' E 014°15'713.0
2018-May-15 19:30N 36°06' E 014°21'613.0
2018-May-15 19:01N 36°02' E 014°26'2144.5
2018-May-15 19:00N 36°00' E 014°24'714.5 320 / 121016.0 18.0 20.0
2018-May-15 18:30N 35°57' E 014°32'3 0.3
2018-May-15 10:20N 35°54' E 014°31'3 7.5
2018-May-15 10:00N 35°55' E 014°34'918.4
2018-May-15 09:30N 35°59' E 014°44'1020.3
2018-May-15 09:00N 36°03' E 014°56'2813.9
2018-May-15 07:00N 36°06' E 015°30'   030 / 201015.0 19.0 20.0

Dump ship's entire track history